Time;durP1;ratioP1;P1;durP2;ratioP2;P2;SDS_P1;SDS_P2;PMS_P1;PMS_P2;Temp;Humidity;BMP_temperature;BMP_pressure;BME280_temperature;BME280_humidity;BME280_pressure;Samples;Min_cycle;Max_cycle;Signal;HPM_P1;HPM_P2
2023/04/14 00:00:58;;;;;;;;;;;;;;;5.14;96.14;95672.34;5035161;28;19941;-73
2023/04/14 00:03:24;;;;;;;;;;;;;;;5.14;96.15;95670.53;5017426;28;19945;-73
2023/04/14 00:05:50;;;;;;;;;;;;;;;5.13;96.01;95663.75;5035832;28;20417;-74
2023/04/14 00:08:15;;;;;;;;;;;;;;;5.13;96.03;95655.97;5035768;28;19949;-73
2023/04/14 00:10:41;;;;;;;;;;;;;;;5.12;95.42;95651.75;5035541;28;20341;-74
2023/04/14 00:13:07;;;;;;;;;;;;;;;5.11;95.67;95646.78;5035127;28;20038;-73
2023/04/14 00:15:33;;;;;;;;;;;;;;;5.07;95.45;95635.97;5018017;28;19954;-73
2023/04/14 00:17:59;;;;;;;;;;;;;;;5.05;93.97;95637.97;5034931;28;20004;-71
2023/04/14 00:20:25;;;;;;;;;;;;;;;5.01;93.99;95637.59;5017318;28;19945;-72
2023/04/14 00:22:50;;;;;;;;;;;;;;;5.00;94.16;95646.38;5035533;28;19939;-74
2023/04/14 00:25:16;;;;;;;;;;;;;;;4.98;93.65;95642.41;5034715;28;19968;-73
2023/04/14 00:27:42;;;;;;;;;;;;;;;4.93;93.59;95642.97;5034196;28;19944;-73
2023/04/14 00:30:08;;;;;;;;;;;;;;;4.91;93.57;95639.78;5034311;28;19947;-75
2023/04/14 00:32:34;;;;;;;;;;;;;;;4.88;93.39;95640.19;5034384;28;19951;-74
2023/04/14 00:35:02;;;;;;;;;;;;;;;4.85;93.19;95644.00;5034249;28;19940;-73
2023/04/14 00:37:28;;;;;;;;;;;;;;;4.82;92.71;95633.22;5034329;28;19969;-71
2023/04/14 00:39:54;;;;;;;;;;;;;;;4.77;92.55;95633.03;5035012;28;19941;-73
2023/04/14 00:42:20;;;;;;;;;;;;;;;4.74;92.35;95646.41;5034247;28;19951;-73
2023/04/14 00:44:47;;;;;;;;;;;;;;;4.68;92.29;95637.59;5034710;28;20305;-73
2023/04/14 00:47:13;;;;;;;;;;;;;;;4.63;92.39;95645.22;5034668;28;19942;-73
2023/04/14 00:49:39;;;;;;;;;;;;;;;4.58;92.57;95643.22;5034234;28;19948;-75
2023/04/14 00:52:05;;;;;;;;;;;;;;;4.56;92.79;95641.81;5033807;28;19950;-74
2023/04/14 00:54:32;;;;;;;;;;;;;;;4.53;92.39;95644.81;5034157;28;19938;-74
2023/04/14 00:56:59;;;;;;;;;;;;;;;4.50;92.40;95660.78;5034723;28;19957;-73
2023/04/14 00:59:27;;;;;;;;;;;;;;;4.45;91.96;95662.19;5034793;28;20397;-75
2023/04/14 01:01:53;;;;;;;;;;;;;;;4.41;92.07;95652.38;5033712;28;19942;-75
2023/04/14 01:04:20;;;;;;;;;;;;;;;4.37;92.03;95657.19;5033451;28;19955;-76
2023/04/14 01:06:45;;;;;;;;;;;;;;;4.33;92.00;95662.97;5033496;28;20303;-76
2023/04/14 01:09:12;;;;;;;;;;;;;;;4.30;91.86;95653.75;5033720;28;19938;-77
2023/04/14 01:11:50;;;;;;;;;;;;;;;4.29;92.01;95662.56;5034826;28;19939;-77
2023/04/14 01:14:22;;;;;;;;;;;;;;;4.25;91.75;95664.75;5033672;28;19966;-78
2023/04/14 01:16:49;;;;;;;;;;;;;;;4.22;91.82;95669.53;5015924;28;19946;-71
2023/04/14 01:19:32;;;;;;;;;;;;;;;4.18;91.65;95670.91;5033493;28;19945;-72
2023/04/14 01:22:02;;;;;;;;;;;;;;;4.13;91.49;95666.31;5033432;28;20311;-72
2023/04/14 01:24:46;;;;;;;;;;;;;;;4.09;91.49;95678.06;5034602;28;19960;-72
2023/04/14 01:27:31;;;;;;;;;;;;;;;4.05;91.34;95680.28;5033558;28;19953;-72
2023/04/14 01:30:16;;;;;;;;;;;;;;;4.03;91.53;95684.88;5033511;28;19941;-72
2023/04/14 01:32:43;;;;;;;;;;;;;;;3.99;91.54;95683.66;5033391;28;19941;-78
2023/04/14 01:35:12;;;;;;;;;;;;;;;3.97;91.64;95692.59;5033299;28;20303;-72
2023/04/14 01:37:42;;;;;;;;;;;;;;;3.95;91.74;95694.59;5014691;28;19959;-72
2023/04/14 01:40:11;;;;;;;;;;;;;;;3.93;91.62;95689.63;5034495;28;19939;-71
2023/04/14 01:42:38;;;;;;;;;;;;;;;3.89;92.03;95709.16;5032762;28;20288;-71
2023/04/14 01:45:14;;;;;;;;;;;;;;;3.86;92.04;95706.94;5033353;28;19955;-71
2023/04/14 01:47:41;;;;;;;;;;;;;;;3.83;92.90;95708.13;5033166;28;19943;-73
2023/04/14 01:50:08;;;;;;;;;;;;;;;3.83;92.74;95702.94;5033356;28;19961;-72
2023/04/14 01:52:35;;;;;;;;;;;;;;;3.82;92.44;95700.53;5033361;28;19938;-71
2023/04/14 01:55:04;;;;;;;;;;;;;;;3.78;92.49;95710.50;5034169;28;19945;-70
2023/04/14 01:57:31;;;;;;;;;;;;;;;3.77;92.50;95708.91;5032984;28;19968;-70
2023/04/14 01:59:58;;;;;;;;;;;;;;;3.75;92.54;95710.09;5032970;28;19997;-71
2023/04/14 02:02:24;;;;;;;;;;;;;;;3.74;92.42;95704.13;5032976;28;19940;-71
2023/04/14 02:04:51;;;;;;;;;;;;;;;3.72;92.49;95710.50;5032382;28;19960;-71
2023/04/14 02:07:18;;;;;;;;;;;;;;;3.69;93.07;95719.44;5032581;28;19941;-71
2023/04/14 02:09:44;;;;;;;;;;;;;;;3.69;93.05;95718.63;5033175;28;19937;-71
2023/04/14 02:12:11;;;;;;;;;;;;;;;3.66;92.75;95717.25;5032655;28;20430;-87
2023/04/14 02:14:39;;;;;;;;;;;;;;;3.65;92.97;95716.44;5032247;28;19974;-86
2023/04/14 02:17:06;;;;;;;;;;;;;;;3.63;92.80;95715.84;5032455;28;19949;-86
2023/04/14 02:19:32;;;;;;;;;;;;;;;3.62;92.63;95716.03;5033041;28;19947;-85
2023/04/14 02:21:59;;;;;;;;;;;;;;;3.60;92.45;95712.81;5032461;28;20396;-84
2023/04/14 02:24:25;;;;;;;;;;;;;;;3.59;92.45;95711.19;5033536;28;20319;-87
2023/04/14 02:27:12;;;;;;;;;;;;;;;3.56;92.64;95709.78;5032483;28;20295;-73
2023/04/14 02:29:40;;;;;;;;;;;;;;;3.54;92.35;95703.22;5032870;28;19945;-73
2023/04/14 02:32:11;;;;;;;;;;;;;;;3.51;92.42;95707.00;5015351;28;19944;-70
2023/04/14 02:34:43;;;;;;;;;;;;;;;3.50;92.65;95712.38;5033553;28;19940;-70
2023/04/14 02:37:15;;;;;;;;;;;;;;;3.49;92.42;95705.59;5032913;28;19967;-69
2023/04/14 02:39:42;;;;;;;;;;;;;;;3.48;92.52;95711.75;5032289;28;19969;-71
2023/04/14 02:42:13;;;;;;;;;;;;;;;3.43;92.54;95710.53;5032234;28;19951;-70
2023/04/14 02:44:42;;;;;;;;;;;;;;;3.40;92.40;95715.28;5032413;28;19963;-69
2023/04/14 02:47:09;;;;;;;;;;;;;;;3.36;91.98;95716.66;5032190;28;20395;-70
2023/04/14 02:49:36;;;;;;;;;;;;;;;3.33;91.48;95715.25;5032919;28;19993;-74
2023/04/14 02:52:06;;;;;;;;;;;;;;;3.31;91.60;95716.44;5036126;28;20319;-75
2023/04/14 02:54:37;;;;;;;;;;;;;;;3.28;91.80;95717.63;5037060;28;19944;-75
2023/04/14 02:57:03;;;;;;;;;;;;;;;3.23;91.73;95710.44;5036067;28;19937;-73
2023/04/14 02:59:30;;;;;;;;;;;;;;;3.20;91.79;95717.78;5036580;28;19939;-73
2023/04/14 03:01:58;;;;;;;;;;;;;;;3.16;91.75;95722.53;5036471;28;20006;-73
2023/04/14 03:04:24;;;;;;;;;;;;;;;3.11;91.63;95726.66;5036424;28;19943;-77
2023/04/14 03:06:51;;;;;;;;;;;;;;;3.07;91.90;95715.91;5018382;28;19946;-71
2023/04/14 03:09:17;;;;;;;;;;;;;;;3.03;91.66;95719.84;5036869;28;20004;-71
2023/04/14 03:11:44;;;;;;;;;;;;;;;2.99;91.65;95727.19;5017875;28;19939;-71
2023/04/14 03:14:10;;;;;;;;;;;;;;;2.96;91.99;95726.75;5035351;28;19967;-71
2023/04/14 03:16:38;;;;;;;;;;;;;;;2.91;91.86;95724.72;5035971;28;20319;-72
2023/04/14 03:19:04;;;;;;;;;;;;;;;2.87;92.19;95727.88;5036204;28;19955;-72
2023/04/14 03:21:30;;;;;;;;;;;;;;;2.84;92.16;95722.09;5035456;28;20407;-71
2023/04/14 03:23:57;;;;;;;;;;;;;;;2.81;92.43;95727.66;5036634;28;20287;-79
2023/04/14 03:26:24;;;;;;;;;;;;;;;2.77;92.12;95726.44;5036564;28;19959;-73
2023/04/14 03:28:52;;;;;;;;;;;;;;;2.73;92.36;95726.97;5036225;28;19944;-75
2023/04/14 03:31:19;;;;;;;;;;;;;;;2.69;92.31;95720.56;5036244;28;19947;-75
2023/04/14 03:33:47;;;;;;;;;;;;;;;2.66;92.33;95721.72;5018426;28;19938;-75
2023/04/14 03:36:14;;;;;;;;;;;;;;;2.62;92.72;95725.69;5036609;28;20317;-75
2023/04/14 03:38:41;;;;;;;;;;;;;;;2.58;92.39;95721.84;5035941;28;20285;-75
2023/04/14 03:41:08;;;;;;;;;;;;;;;2.55;92.27;95714.47;5036766;28;20381;-71
2023/04/14 03:43:35;;;;;;;;;;;;;;;2.54;92.30;95723.22;5018472;28;19955;-74
2023/04/14 03:46:04;;;;;;;;;;;;;;;2.50;92.45;95717.63;5036227;28;19957;-73
2023/04/14 03:48:33;;;;;;;;;;;;;;;2.49;92.32;95716.00;5035767;28;19943;-74
2023/04/14 03:51:01;;;;;;;;;;;;;;;2.47;92.84;95717.97;5035669;28;19944;-74
2023/04/14 03:53:28;;;;;;;;;;;;;;;2.47;92.20;95710.22;5035570;28;19942;-74
2023/04/14 03:55:55;;;;;;;;;;;;;;;2.47;93.15;95715.38;5017699;28;19951;-74
2023/04/14 03:58:21;;;;;;;;;;;;;;;2.48;93.12;95721.34;5036189;28;19947;-74
2023/04/14 04:00:48;;;;;;;;;;;;;;;2.47;93.61;95723.16;5035182;28;19955;-73
2023/04/14 04:03:14;;;;;;;;;;;;;;;2.46;94.87;95731.09;5035449;28;20340;-71
2023/04/14 04:05:41;;;;;;;;;;;;;;;2.43;94.53;95733.06;5017567;28;19969;-71
2023/04/14 04:08:07;;;;;;;;;;;;;;;2.44;93.73;95726.13;5001540;28;19964;-71
2023/04/14 04:10:33;;;;;;;;;;;;;;;2.42;93.67;95728.88;5018056;28;20395;-71
2023/04/14 04:13:05;;;;;;;;;;;;;;;2.41;93.31;95723.88;5035021;28;20335;-71
2023/04/14 04:15:31;;;;;;;;;;;;;;;2.40;93.48;95728.25;5036408;28;19943;-71
2023/04/14 04:17:58;;;;;;;;;;;;;;;2.37;93.55;95726.06;5036309;28;19941;-73
2023/04/14 04:20:25;;;;;;;;;;;;;;;2.35;93.14;95724.63;5035710;28;20318;-77
2023/04/14 04:22:51;;;;;;;;;;;;;;;2.32;92.83;95723.22;5018034;28;19937;-77
2023/04/14 04:25:18;;;;;;;;;;;;;;;2.28;92.77;95721.19;5035564;28;19958;-75
2023/04/14 04:27:44;;;;;;;;;;;;;;;2.24;92.55;95728.50;5035542;28;20301;-75
2023/04/14 04:30:11;;;;;;;;;;;;;;;2.19;92.68;95726.47;5035384;28;19956;-75
2023/04/14 04:32:37;;;;;;;;;;;;;;;2.17;92.95;95727.63;5035294;28;20306;-76
2023/04/14 04:35:07;;;;;;;;;;;;;;;2.14;93.06;95733.16;5035279;28;20315;-76
2023/04/14 04:37:33;;;;;;;;;;;;;;;2.13;92.83;95731.56;5035302;28;19957;-74
2023/04/14 04:39:59;;;;;;;;;;;;;;;2.09;92.67;95736.28;5035226;28;19946;-76
2023/04/14 04:42:25;;;;;;;;;;;;;;;2.05;92.56;95731.69;5035222;28;19936;-76
2023/04/14 04:44:51;;;;;;;;;;;;;;;2.03;92.37;95735.22;5035633;28;19942;-76
2023/04/14 04:47:17;;;;;;;;;;;;;;;2.04;92.26;95746.41;5017280;28;19946;-76
2023/04/14 04:49:43;;;;;;;;;;;;;;;2.02;92.30;95743.19;5035721;28;19939;-75
2023/04/14 04:52:08;;;;;;;;;;;;;;;2.00;92.51;95745.16;5035400;28;19939;-75
2023/04/14 04:54:34;;;;;;;;;;;;;;;2.00;92.69;95745.16;5035060;28;19989;-70
2023/04/14 04:57:00;;;;;;;;;;;;;;;2.01;92.80;95754.50;5035015;28;19951;-75
2023/04/14 04:59:26;;;;;;;;;;;;;;;2.02;93.36;95761.28;5035010;28;19943;-75
2023/04/14 05:01:52;;;;;;;;;;;;;;;2.06;93.80;95772.06;5017091;28;19990;-75
2023/04/14 05:04:17;;;;;;;;;;;;;;;2.08;94.11;95767.50;5034941;28;19944;-75
2023/04/14 05:06:43;;;;;;;;;;;;;;;2.13;94.92;95778.91;5035287;28;20007;-74
2023/04/14 05:09:09;;;;;;;;;;;;;;;2.17;95.12;95782.75;5035606;28;19946;-74
2023/04/14 05:11:35;;;;;;;;;;;;;;;2.23;95.17;95781.22;5034773;28;19941;-74
2023/04/14 05:14:01;;;;;;;;;;;;;;;2.44;95.17;95788.22;5034063;28;19972;-69
2023/04/14 05:16:28;;;;;;;;;;;;;;;2.85;94.79;95780.66;5034494;28;20427;-70
2023/04/14 05:18:54;;;;;;;;;;;;;;;3.38;93.33;95769.09;5034204;28;20335;-72
2023/04/14 05:21:21;;;;;;;;;;;;;;;3.93;92.02;95764.06;5034531;28;19950;-70
2023/04/14 05:23:47;;;;;;;;;;;;;;;4.46;90.12;95752.03;5034362;28;19942;-70
2023/04/14 05:26:13;;;;;;;;;;;;;;;4.98;88.52;95739.31;5034472;28;19961;-69
2023/04/14 05:28:39;;;;;;;;;;;;;;;5.47;86.72;95727.69;5034950;28;19948;-71
2023/04/14 05:31:05;;;;;;;;;;;;;;;5.95;84.74;95708.38;5034712;28;19941;-79
2023/04/14 05:33:32;;;;;;;;;;;;;;;6.39;83.32;95706.75;5035011;28;19958;-79
2023/04/14 05:35:57;;;;;;;;;;;;;;;6.82;81.26;95690.41;5034208;28;19954;-70
2023/04/14 05:38:23;;;;;;;;;;;;;;;7.23;79.26;95675.25;5016725;28;19951;-71
2023/04/14 05:40:49;;;;;;;;;;;;;;;7.61;78.07;95655.97;5034674;28;19991;-71
2023/04/14 05:43:16;;;;;;;;;;;;;;;7.94;76.07;95658.19;5034008;28;19943;-71
2023/04/14 05:45:41;;;;;;;;;;;;;;;8.20;74.65;95643.19;5033792;28;19958;-71
2023/04/14 05:48:07;;;;;;;;;;;;;;;8.37;74.10;95644.16;5034031;28;20047;-71
2023/04/14 05:50:34;;;;;;;;;;;;;;;8.59;73.37;95643.66;5034100;28;19943;-79
2023/04/14 05:52:59;;;;;;;;;;;;;;;8.71;72.34;95639.25;5033949;28;19939;-71
2023/04/14 05:55:26;;;;;;;;;;;;;;;8.85;71.80;95629.38;5033928;28;19994;-71
2023/04/14 05:57:52;;;;;;;;;;;;;;;9.13;70.80;95634.72;5033839;28;20306;-72
2023/04/14 06:00:18;;;;;;;;;;;;;;;9.27;68.56;95624.81;5033897;28;19947;-72
2023/04/14 06:02:44;;;;;;;;;;;;;;;9.25;68.70;95629.47;5034101;28;19969;-72
2023/04/14 06:05:11;;;;;;;;;;;;;;;9.40;68.61;95630.81;5016161;28;20303;-72
2023/04/14 06:07:38;;;;;;;;;;;;;;;9.61;69.00;95642.50;5033755;28;19945;-77
2023/04/14 06:10:04;;;;;;;;;;;;;;;9.65;64.76;95609.59;5034007;28;19943;-77
2023/04/14 06:12:30;;;;;;;;;;;;;;;9.67;75.32;95712.25;5033737;28;19943;-74
2023/04/14 06:14:56;;;;;;;;;;;;;;;10.20;76.76;95720.91;5033403;28;20423;-72
2023/04/14 06:17:22;;;;;;;;;;;;;;;10.63;67.59;95641.78;5034119;28;20424;-72
2023/04/14 06:19:48;;;;;;;;;;;;;;;10.99;66.54;95692.16;5034086;28;19953;-72
2023/04/14 06:22:20;;;;;;;;;;;;;;;11.11;64.00;95713.88;5015797;28;20445;-72
2023/04/14 06:24:46;;;;;;;;;;;;;;;10.97;64.33;95734.38;5034187;28;19945;-72
2023/04/14 06:27:12;;;;;;;;;;;;;;;10.62;61.93;95731.94;5033930;28;20007;-72
2023/04/14 06:29:38;;;;;;;;;;;;;;;10.40;63.15;95739.69;5034416;28;19939;-85
2023/04/14 06:32:04;;;;;;;;;;;;;;;10.24;64.19;95741.16;5035676;28;19936;-84
2023/04/14 06:34:30;;;;;;;;;;;;;;;10.29;64.96;95749.19;5035550;28;19946;-84
2023/04/14 06:36:57;;;;;;;;;;;;;;;10.22;64.74;95745.06;5034955;28;19961;-83
2023/04/14 06:39:26;;;;;;;;;;;;;;;10.11;62.89;95733.59;5034911;28;19952;-85
2023/04/14 06:41:52;;;;;;;;;;;;;;;10.07;66.60;95748.97;5032916;28;19947;-85
2023/04/14 06:44:18;;;;;;;;;;;;;;;9.94;63.86;95728.28;5033814;28;19986;-73
2023/04/14 06:46:43;;;;;;;;;;;;;;;9.96;65.31;95734.88;5015433;28;19968;-72
2023/04/14 06:49:09;;;;;;;;;;;;;;;9.92;66.32;95743.41;5034019;28;19941;-73
2023/04/14 06:51:35;;;;;;;;;;;;;;;9.83;65.96;95739.56;5033143;28;19942;-73
2023/04/14 06:54:01;;;;;;;;;;;;;;;9.88;65.61;95740.47;5033730;28;19945;-73
2023/04/14 06:56:27;;;;;;;;;;;;;;;9.98;66.30;95739.09;5033246;28;20424;-73
2023/04/14 06:58:53;;;;;;;;;;;;;;;9.94;65.34;95736.13;5033782;28;20391;-73
2023/04/14 07:01:19;;;;;;;;;;;;;;;9.90;65.51;95724.53;5033730;28;20023;-73
2023/04/14 07:03:45;;;;;;;;;;;;;;;9.75;64.00;95730.25;5033187;28;19940;-84
2023/04/14 07:06:15;;;;;;;;;;;;;;;9.57;64.56;95718.06;5033972;28;20300;-72
2023/04/14 07:08:41;;;;;;;;;;;;;;;9.43;65.76;95729.78;5033057;28;19944;-73
2023/04/14 07:11:09;;;;;;;;;;;;;;;9.42;66.64;95739.47;5033226;28;19947;-72
2023/04/14 07:13:35;;;;;;;;;;;;;;;9.75;67.97;95730.25;5032696;28;19966;-73
2023/04/14 07:16:02;;;;;;;;;;;;;;;10.13;67.54;95728.91;5032949;28;19947;-73
2023/04/14 07:18:28;;;;;;;;;;;;;;;10.30;64.18;95719.31;5015327;28;19946;-72
2023/04/14 07:20:54;;;;;;;;;;;;;;;10.29;65.92;95709.00;5015187;28;20317;-72
2023/04/14 07:23:20;;;;;;;;;;;;;;;10.20;65.39;95702.56;5033066;28;19945;-73
2023/04/14 07:25:53;;;;;;;;;;;;;;;10.20;66.76;95711.22;5015840;28;19963;-73
2023/04/14 07:28:19;;;;;;;;;;;;;;;10.32;67.08;95709.38;5033438;28;20295;-72
2023/04/14 07:30:45;;;;;;;;;;;;;;;10.43;65.67;95694.63;5033518;28;19937;-73
2023/04/14 07:33:11;;;;;;;;;;;;;;;10.43;65.24;95699.88;5032934;28;19995;-72
2023/04/14 07:35:37;;;;;;;;;;;;;;;10.62;66.19;95700.47;5033032;28;19936;-73
2023/04/14 07:38:03;;;;;;;;;;;;;;;10.84;63.43;95684.84;5036693;28;19982;-72
2023/04/14 07:40:29;;;;;;;;;;;;;;;10.98;64.54;95693.19;5019630;28;20033;-73
2023/04/14 07:42:56;;;;;;;;;;;;;;;11.09;64.38;95692.31;5018705;28;19946;-73
2023/04/14 07:45:22;;;;;;;;;;;;;;;11.21;64.05;95684.34;5019166;28;19950;-72
2023/04/14 07:47:49;;;;;;;;;;;;;;;11.23;62.71;95677.03;5036259;28;19951;-72
2023/04/14 07:50:15;;;;;;;;;;;;;;;11.18;62.67;95669.88;5036236;28;19943;-74
2023/04/14 07:52:41;;;;;;;;;;;;;;;10.95;62.56;95683.19;5019051;28;19950;-73
2023/04/14 07:55:07;;;;;;;;;;;;;;;10.89;62.45;95681.50;5036209;28;19992;-72
2023/04/14 07:57:33;;;;;;;;;;;;;;;10.85;64.01;95683.03;5036102;28;19944;-72
2023/04/14 07:59:59;;;;;;;;;;;;;;;10.93;64.46;95685.25;5036838;28;19943;-74
2023/04/14 08:02:26;;;;;;;;;;;;;;;11.05;63.92;95687.81;5018260;28;20471;-71
2023/04/14 08:04:52;;;;;;;;;;;;;;;11.10;61.26;95667.66;5018148;28;20298;-72
2023/04/14 08:07:18;;;;;;;;;;;;;;;11.25;62.81;95674.97;5036331;28;19952;-72
2023/04/14 08:09:44;;;;;;;;;;;;;;;11.41;61.88;95668.13;5018007;28;19946;-72
2023/04/14 08:12:10;;;;;;;;;;;;;;;11.55;65.73;95690.38;5036211;28;19935;-72
2023/04/14 08:14:36;;;;;;;;;;;;;;;11.65;60.54;95671.31;5013767;28;19979;-72
2023/04/14 08:17:02;;;;;;;;;;;;;;;11.87;63.59;95684.47;5014055;28;19944;-72
2023/04/14 08:19:29;;;;;;;;;;;;;;;12.00;61.85;95675.44;4997699;28;19992;-74
2023/04/14 08:21:55;;;;;;;;;;;;;;;11.97;57.84;95666.22;4997956;28;19943;-73
2023/04/14 08:24:21;;;;;;;;;;;;;;;12.00;59.18;95682.53;5013832;28;19947;-72
2023/04/14 08:26:47;;;;;;;;;;;;;;;12.00;58.55;95679.91;4997113;28;19964;-71
2023/04/14 08:29:13;;;;;;;;;;;;;;;12.05;59.43;95670.22;4997064;28;20000;-71
2023/04/14 08:31:39;;;;;;;;;;;;;;;12.21;59.19;95673.81;4981696;28;20410;-73
2023/04/14 08:34:05;;;;;;;;;;;;;;;12.34;57.99;95670.81;5013391;28;20400;-72
2023/04/14 08:36:31;;;;;;;;;;;;;;;12.54;60.32;95680.75;4981455;28;19951;-86
2023/04/14 08:38:59;;;;;;;;;;;;;;;12.78;61.54;95675.94;5014159;28;19946;-73
2023/04/14 08:41:25;;;;;;;;;;;;;;;12.80;57.48;95671.22;4996828;28;19951;-73
2023/04/14 08:43:51;;;;;;;;;;;;;;;12.70;56.77;95668.50;5013754;28;19936;-73
2023/04/14 08:46:18;;;;;;;;;;;;;;;12.78;56.86;95669.91;5014919;28;19963;-73
2023/04/14 08:48:46;;;;;;;;;;;;;;;13.02;57.69;95677.44;5013737;28;20311;-73
2023/04/14 08:51:15;;;;;;;;;;;;;;;13.21;54.14;95670.75;5015231;28;20312;-73
2023/04/14 08:53:44;;;;;;;;;;;;;;;13.51;55.97;95678.06;5015650;28;19945;-75
2023/04/14 08:56:12;;;;;;;;;;;;;;;13.66;51.53;95668.66;5015362;28;19949;-85
2023/04/14 08:58:38;;;;;;;;;;;;;;;13.70;52.06;95667.88;5015512;28;19950;-73
2023/04/14 09:01:04;;;;;;;;;;;;;;;13.79;53.46;95674.25;5015220;28;19939;-74
2023/04/14 09:03:30;;;;;;;;;;;;;;;13.73;51.49;95667.41;5014944;28;20080;-74
2023/04/14 09:05:56;;;;;;;;;;;;;;;13.52;52.23;95670.94;5015011;28;19971;-74
2023/04/14 09:08:22;;;;;;;;;;;;;;;13.38;51.28;95676.69;5014403;28;19944;-74
2023/04/14 09:10:49;;;;;;;;;;;;;;;13.49;50.80;95669.63;5014549;28;20410;-75
2023/04/14 09:13:15;;;;;;;;;;;;;;;13.56;49.79;95670.19;5019586;28;19975;-73
2023/04/14 09:15:41;;;;;;;;;;;;;;;13.55;51.47;95675.72;5034624;28;20399;-75
2023/04/14 09:18:08;;;;;;;;;;;;;;;13.76;50.15;95672.13;5034459;28;19954;-74
2023/04/14 09:20:34;;;;;;;;;;;;;;;13.91;48.47;95671.41;5034478;28;19952;-75
2023/04/14 09:23:00;;;;;;;;;;;;;;;14.13;46.05;95668.59;5035268;28;19937;-75
2023/04/14 09:25:26;;;;;;;;;;;;;;;14.28;51.80;95688.13;5034399;28;19942;-74
2023/04/14 09:27:52;;;;;;;;;;;;;;;14.47;49.11;95677.88;5034296;28;20485;-75
2023/04/14 09:30:18;;;;;;;;;;;;;;;14.67;46.19;95674.53;5034405;28;20439;-74
2023/04/14 09:32:44;;;;;;;;;;;;;;;14.77;46.84;95675.31;5000837;28;20015;-87
2023/04/14 09:35:12;;;;;;;;;;;;;;;14.72;47.40;95677.97;5034529;28;20014;-81
2023/04/14 09:37:42;;;;;;;;;;;;;;;14.72;42.09;95675.34;5016625;28;19955;-80
2023/04/14 09:40:09;;;;;;;;;;;;;;;14.71;45.29;95681.66;5034775;28;19944;-81
2023/04/14 09:42:39;;;;;;;;;;;;;;;14.86;43.24;95683.50;5016516;28;19947;-80
2023/04/14 09:45:05;;;;;;;;;;;;;;;14.78;44.07;95678.75;5034079;28;19964;-81
2023/04/14 09:47:31;;;;;;;;;;;;;;;14.30;42.60;95681.56;5016438;28;19956;-81
2023/04/14 09:50:04;;;;;;;;;;;;;;;13.96;46.37;95694.34;5016577;28;19979;-87
2023/04/14 09:52:37;;;;;;;;;;;;;;;13.98;44.89;95684.34;5016294;28;19949;-79
2023/04/14 09:55:06;;;;;;;;;;;;;;;14.22;43.50;95679.44;5034456;28;19940;-81
2023/04/14 09:57:33;;;;;;;;;;;;;;;14.41;43.73;95679.75;5033954;28;19943;-80
2023/04/14 09:59:59;;;;;;;;;;;;;;;14.60;44.68;95677.44;5033666;28;19940;-81
2023/04/14 10:02:25;;;;;;;;;;;;;;;14.71;42.46;95670.31;5034127;28;19983;-80
2023/04/14 10:05:04;;;;;;;;;;;;;;;14.87;42.44;95676.41;5033341;28;19960;-81
2023/04/14 10:07:30;;;;;;;;;;;;;;;14.77;47.53;95683.25;5034172;28;20416;-74
2023/04/14 10:09:55;;;;;;;;;;;;;;;14.91;45.89;95669.50;5033647;28;19940;-75
2023/04/14 10:12:21;;;;;;;;;;;;;;;14.88;39.50;95667.41;5015671;28;20453;-87
2023/04/14 10:14:47;;;;;;;;;;;;;;;14.68;43.08;95669.00;5033157;28;20342;-86
2023/04/14 10:17:13;;;;;;;;;;;;;;;14.47;40.75;95664.69;5033786;28;20295;-87
2023/04/14 10:19:39;;;;;;;;;;;;;;;14.12;43.40;95664.38;5036997;28;19939;-95
2023/04/14 10:22:05;;;;;;;;;;;;;;;13.91;43.67;95662.72;5038848;28;19948;-96
2023/04/14 10:24:31;;;;;;;;;;;;;;;13.76;40.60;95658.19;5040439;28;19946;-95
2023/04/14 10:26:58;;;;;;;;;;;;;;;13.64;40.55;95653.09;5036689;28;19966;-80
2023/04/14 10:29:24;;;;;;;;;;;;;;;13.52;43.37;95650.69;5016336;28;19950;-73
2023/04/14 10:31:52;;;;;;;;;;;;;;;13.40;44.37;95652.72;5033303;28;19937;-73
2023/04/14 10:34:18;;;;;;;;;;;;;;;13.26;41.49;95651.56;5033041;28;19941;-73
2023/04/14 10:36:45;;;;;;;;;;;;;;;13.32;40.79;95645.31;5033488;28;19953;-75
2023/04/14 10:39:11;;;;;;;;;;;;;;;13.64;40.15;95641.78;5015657;28;19939;-72
2023/04/14 10:41:43;;;;;;;;;;;;;;;13.98;41.76;95639.53;5034283;28;19936;-73
2023/04/14 10:44:27;;;;;;;;;;;;;;;14.29;40.88;95645.69;5033617;28;19941;-72
2023/04/14 10:46:55;;;;;;;;;;;;;;;14.78;40.09;95641.81;5033464;28;19964;-84
2023/04/14 10:49:23;;;;;;;;;;;;;;;15.13;40.95;95637.56;5033938;28;19949;-86
2023/04/14 10:51:49;;;;;;;;;;;;;;;15.28;38.12;95618.25;5033613;28;19943;-85
2023/04/14 10:54:18;;;;;;;;;;;;;;;15.31;39.68;95625.66;5033709;28;19941;-85
2023/04/14 10:57:02;;;;;;;;;;;;;;;15.30;40.04;95624.06;5033626;28;19957;-86
2023/04/14 10:59:28;;;;;;;;;;;;;;;15.40;38.63;95622.19;5034827;28;20295;-80
2023/04/14 11:01:55;;;;;;;;;;;;;;;15.57;40.64;95619.22;5034590;28;19940;-74
2023/04/14 11:04:22;;;;;;;;;;;;;;;15.56;40.05;95624.78;5033302;28;19939;-73
2023/04/14 11:06:52;;;;;;;;;;;;;;;15.56;43.01;95628.22;5033651;28;19962;-84
2023/04/14 11:09:24;;;;;;;;;;;;;;;15.63;42.15;95617.38;4999958;28;19946;-88
2023/04/14 11:11:51;;;;;;;;;;;;;;;15.56;40.17;95612.38;5035354;28;20385;-88
2023/04/14 11:14:23;;;;;;;;;;;;;;;15.68;37.36;95613.91;5037095;28;19979;-85
2023/04/14 11:16:49;;;;;;;;;;;;;;;15.79;40.40;95600.44;5019766;28;20316;-86
2023/04/14 11:19:16;;;;;;;;;;;;;;;15.82;37.09;95596.44;5037640;28;19938;-81
2023/04/14 11:21:48;;;;;;;;;;;;;;;16.00;40.59;95595.81;5037796;28;19942;-84
2023/04/14 11:24:15;;;;;;;;;;;;;;;16.30;40.21;95601.22;5037403;28;19943;-74
2023/04/14 11:26:43;;;;;;;;;;;;;;;16.02;37.60;95593.69;5036634;28;20460;-72
2023/04/14 11:29:09;;;;;;;;;;;;;;;15.72;38.30;95591.97;5037224;28;19943;-73
2023/04/14 11:31:35;;;;;;;;;;;;;;;15.40;39.10;95598.41;5036611;28;20009;-72
2023/04/14 11:34:07;;;;;;;;;;;;;;;15.14;41.96;95607.44;5036508;28;19937;-72
2023/04/14 11:36:37;;;;;;;;;;;;;;;14.90;42.04;95607.22;5036610;28;19971;-72
2023/04/14 11:39:06;;;;;;;;;;;;;;;14.74;42.01;95607.25;5037287;28;19943;-73
2023/04/14 11:41:32;;;;;;;;;;;;;;;14.58;42.06;95608.28;5036437;28;19937;-86
2023/04/14 11:43:59;;;;;;;;;;;;;;;14.32;42.50;95610.88;5036337;28;19935;-73
2023/04/14 11:46:25;;;;;;;;;;;;;;;14.16;41.83;95601.38;5035027;28;19952;-73
2023/04/14 11:48:55;;;;;;;;;;;;;;;14.17;43.28;95601.13;5018561;28;19953;-74
2023/04/14 11:51:26;;;;;;;;;;;;;;;14.28;43.89;95604.56;5036245;28;20317;-73
2023/04/14 11:53:54;;;;;;;;;;;;;;;14.37;43.43;95599.56;5036744;28;19943;-74
2023/04/14 11:56:20;;;;;;;;;;;;;;;14.42;43.27;95596.91;5036098;28;19941;-73
2023/04/14 11:58:46;;;;;;;;;;;;;;;14.38;42.46;95590.56;5036250;28;19951;-74
2023/04/14 12:01:13;;;;;;;;;;;;;;;14.23;41.95;95591.34;5036659;28;19982;-74
2023/04/14 12:03:39;;;;;;;;;;;;;;;14.15;41.21;95592.66;5036828;28;19953;-73
2023/04/14 12:06:05;;;;;;;;;;;;;;;14.16;42.68;95586.34;5036146;28;19941;-74
2023/04/14 12:08:32;;;;;;;;;;;;;;;14.18;42.71;95589.50;5035873;28;19958;-74
2023/04/14 12:11:14;;;;;;;;;;;;;;;14.19;42.36;95574.47;5035880;28;19938;-75
2023/04/14 12:13:40;;;;;;;;;;;;;;;14.48;41.87;95579.25;5017883;28;19979;-75
2023/04/14 12:16:06;;;;;;;;;;;;;;;14.92;44.74;95571.59;5036405;28;20288;-80
2023/04/14 12:18:32;;;;;;;;;;;;;;;15.31;39.82;95565.69;5035806;28;20313;-73
2023/04/14 12:21:02;;;;;;;;;;;;;;;15.61;40.28;95561.34;5036921;28;20027;-91
2023/04/14 12:23:28;;;;;;;;;;;;;;;15.75;36.76;95559.72;5037279;28;19938;-91
2023/04/14 12:25:54;;;;;;;;;;;;;;;15.85;37.00;95550.16;5036302;28;19997;-91
2023/04/14 12:28:26;;;;;;;;;;;;;;;15.88;40.43;95560.97;5037979;28;19961;-91
2023/04/14 12:30:54;;;;;;;;;;;;;;;15.88;41.68;95549.63;5019298;28;19947;-90
2023/04/14 12:33:24;;;;;;;;;;;;;;;15.67;37.17;95543.63;5018654;28;19939;-92
2023/04/14 12:35:51;;;;;;;;;;;;;;;15.87;37.50;95542.75;5036015;28;19944;-74
2023/04/14 12:38:17;;;;;;;;;;;;;;;16.10;36.84;95530.69;5035995;28;20310;-72
2023/04/14 12:40:44;;;;;;;;;;;;;;;16.14;36.33;95524.56;5036180;28;20012;-72
2023/04/14 12:43:11;;;;;;;;;;;;;;;15.96;37.26;95531.31;5035210;28;19936;-72
2023/04/14 12:45:39;;;;;;;;;;;;;;;15.82;38.87;95523.19;5035211;28;19946;-72
2023/04/14 12:48:05;;;;;;;;;;;;;;;15.45;37.78;95520.19;5035066;28;19958;-72
2023/04/14 12:50:32;;;;;;;;;;;;;;;15.07;38.85;95519.81;5035052;28;19987;-72
2023/04/14 12:53:02;;;;;;;;;;;;;;;14.86;39.82;95530.41;5034997;28;19937;-74